Airfield :







YOU CAN JOIN US ON...

 
LOGIN :

Register | Disclaimer

   EN    FR    IT 

 









Legend :    VFR   Marginal VFR   IFR   Intensive IFR   Very Intensive IFR
Visi :
Ceiling :
>= 8 km
>= 3000ft
5 to 8 km
1000 to 3000 ft
1500m to 5 km
500 to 1000 ft
800 to 1500m
200 to 500 ft
< 800m
< 200 ft
Symbols :   Thunderstorms  Fog  Heavy snow  Heavy precipitations  Wind > 20 kt







- Airport Elevation : 1442 ft
- IATA code : ZUM


CZUM - Churchill Falls

CURRENT METAR :
  • 160200Z AUTO 10010G15KT 9SM OVC020 11/08 A2977 RMK SLP093

EXPIRED METARs :
  • 160106Z AUTO 12012G21KT 9SM BKN024 BKN034 11/08 A2978 RMK SLP097
  • 160000Z AUTO 11008KT 9SM SCT040 BKN050 OVC065 12/08 A2977 RMK SLP093 DENSITY ALT 1500FT

TAF TAF CZUM
Valid from the 16 at 02:00 until the 16 at 14:00 UTC


160141Z 1602/1614 12010KT P6SM SCT015 OVC025
TEMPO 1602/1606 3SM -SHRA BR OVC015
PROB30 1604/1606 2SM BR OVC005
FM160600 11012KT 6SM -RA BR SCT006 OVC015
TEMPO 1606/1609 2SM -RA BR BKN006 OVC015
FM160900 10012KT 5SM -RA BR OVC009
TEMPO 1609/1614 11/2SM -RA BR OVC003 RMK FCST BASED ON AUTO OBS. NXT FCST BY 160800Z
CZQX FIR / North America



MET'MAP, your aeronautical weather chart ! - Copyright ORBIFLY December 2007 - Disclaimer

ORBIFLY MET'MAP TEAM :

Programming & Development : Alexandra Zaïnal
Concept & Development : Baudouin d'Aumeries
Co-Development & Prog : Marc-Olivier Méhu
Technical & hardware support : Manuel Goepfert

Contact : metmap@orbifly.com




SOURCES & CREDITS :

   NOAA